sensor_id;sensor_type;location;lat;lon;timestamp;pressure;altitude;pressure_sealevel;temperature;humidity
4836;BME280;66719;51.226;6.902;2023-03-25T00:00:05;99630.72;;;9.39;100.00
4836;BME280;66719;51.226;6.902;2023-03-25T00:02:38;99635.94;;;9.39;100.00
4836;BME280;66719;51.226;6.902;2023-03-25T00:05:06;99637.72;;;9.37;100.00
4836;BME280;66719;51.226;6.902;2023-03-25T00:07:33;99632.50;;;9.37;100.00
4836;BME280;66719;51.226;6.902;2023-03-25T00:09:59;99629.81;;;9.40;100.00
4836;BME280;66719;51.226;6.902;2023-03-25T00:12:26;99618.47;;;9.41;100.00
4836;BME280;66719;51.226;6.902;2023-03-25T00:14:53;99620.34;;;9.35;100.00
4836;BME280;66719;51.226;6.902;2023-03-25T00:17:21;99618.53;;;9.38;100.00
4836;BME280;66719;51.226;6.902;2023-03-25T00:19:48;99615.84;;;9.41;100.00
4836;BME280;66719;51.226;6.902;2023-03-25T00:22:16;99604.50;;;9.42;100.00
4836;BME280;66719;51.226;6.902;2023-03-25T00:24:43;99608.91;;;9.40;100.00
4836;BME280;66719;51.226;6.902;2023-03-25T00:27:10;99610.66;;;9.39;100.00
4836;BME280;66719;51.226;6.902;2023-03-25T00:29:43;99608.06;;;9.39;100.00
4836;BME280;66719;51.226;6.902;2023-03-25T00:32:11;99602.78;;;9.41;100.00
4836;BME280;66719;51.226;6.902;2023-03-25T00:34:38;99605.44;;;9.39;100.00
4836;BME280;66719;51.226;6.902;2023-03-25T00:37:14;99606.38;;;9.37;100.00
4836;BME280;66719;51.226;6.902;2023-03-25T00:39:47;99602.84;;;9.38;100.00
4836;BME280;66719;51.226;6.902;2023-03-25T00:42:17;99602.78;;;9.41;100.00
4836;BME280;66719;51.226;6.902;2023-03-25T00:44:52;99601.03;;;9.41;100.00
4836;BME280;66719;51.226;6.902;2023-03-25T00:47:18;99603.72;;;9.38;100.00
4836;BME280;66719;51.226;6.902;2023-03-25T00:49:48;99601.03;;;9.41;100.00
4836;BME280;66719;51.226;6.902;2023-03-25T00:52:14;99598.47;;;9.38;100.00
4836;BME280;66719;51.226;6.902;2023-03-25T00:54:41;99595.84;;;9.40;100.00
4836;BME280;66719;51.226;6.902;2023-03-25T00:57:08;99592.34;;;9.41;100.00
4836;BME280;66719;51.226;6.902;2023-03-25T00:59:35;99599.25;;;9.42;100.00
4836;BME280;66719;51.226;6.902;2023-03-25T01:02:01;99598.34;;;9.43;100.00
4836;BME280;66719;51.226;6.902;2023-03-25T01:04:28;99596.69;;;9.40;100.00
4836;BME280;66719;51.226;6.902;2023-03-25T01:06:55;99598.47;;;9.40;100.00
4836;BME280;66719;51.226;6.902;2023-03-25T01:09:21;99595.69;;;9.44;100.00
4836;BME280;66719;51.226;6.902;2023-03-25T01:11:48;99603.63;;;9.41;100.00
4836;BME280;66719;51.226;6.902;2023-03-25T01:14:18;99590.63;;;9.40;100.00
4836;BME280;66719;51.226;6.902;2023-03-25T01:16:46;99603.63;;;9.41;100.00
4836;BME280;66719;51.226;6.902;2023-03-25T01:19:13;99595.84;;;9.40;100.00
4836;BME280;66719;51.226;6.902;2023-03-25T01:21:40;99604.59;;;9.39;100.00
4836;BME280;66719;51.226;6.902;2023-03-25T01:24:11;99598.47;;;9.40;100.00
4836;BME280;66719;51.226;6.902;2023-03-25T01:26:38;99599.31;;;9.40;100.00
4836;BME280;66719;51.226;6.902;2023-03-25T01:29:06;99594.94;;;9.41;100.00
4836;BME280;66719;51.226;6.902;2023-03-25T01:31:33;99605.41;;;9.41;100.00
4836;BME280;66719;51.226;6.902;2023-03-25T01:33:59;99600.22;;;9.39;100.00
4836;BME280;66719;51.226;6.902;2023-03-25T01:36:26;99594.94;;;9.41;100.00
4836;BME280;66719;51.226;6.902;2023-03-25T01:38:57;99596.69;;;9.40;100.00
4836;BME280;66719;51.226;6.902;2023-03-25T01:41:28;99608.00;;;9.41;100.00
4836;BME280;66719;51.226;6.902;2023-03-25T01:46:43;99601.06;;;9.40;100.00
4836;BME280;66719;51.226;6.902;2023-03-25T01:49:15;99599.38;;;9.39;100.00
4836;BME280;66719;51.226;6.902;2023-03-25T01:51:44;99598.47;;;9.40;100.00
4836;BME280;66719;51.226;6.902;2023-03-25T01:54:13;99595.00;;;9.39;100.00
4836;BME280;66719;51.226;6.902;2023-03-25T01:56:44;99599.38;;;9.39;100.00
4836;BME280;66719;51.226;6.902;2023-03-25T01:59:14;99595.94;;;9.37;100.00
4836;BME280;66719;51.226;6.902;2023-03-25T02:01:45;99589.91;;;9.34;100.00
4836;BME280;66719;51.226;6.902;2023-03-25T02:04:13;99595.13;;;9.34;100.00
4836;BME280;66719;51.226;6.902;2023-03-25T02:06:49;99586.44;;;9.34;100.00
4836;BME280;66719;51.226;6.902;2023-03-25T02:09:19;99597.75;;;9.34;100.00
4836;BME280;66719;51.226;6.902;2023-03-25T02:11:47;99584.75;;;9.33;100.00
4836;BME280;66719;51.226;6.902;2023-03-25T02:14:21;99580.38;;;9.33;100.00
4836;BME280;66719;51.226;6.902;2023-03-25T02:17:21;99578.66;;;9.32;100.00
4836;BME280;66719;51.226;6.902;2023-03-25T02:20:33;99583.97;;;9.29;100.00
4836;BME280;66719;51.226;6.902;2023-03-25T02:23:53;99586.56;;;9.31;100.00
4836;BME280;66719;51.226;6.902;2023-03-25T02:29:10;99584.91;;;9.27;100.00
4836;BME280;66719;51.226;6.902;2023-03-25T02:32:02;99592.00;;;9.23;100.00
4836;BME280;66719;51.226;6.902;2023-03-25T02:42:40;99581.75;;;9.17;100.00
4836;BME280;66719;51.226;6.902;2023-03-25T02:45:19;99586.97;;;9.17;100.00
4836;BME280;66719;51.226;6.902;2023-03-25T02:47:49;99593.00;;;9.19;100.00
4836;BME280;66719;51.226;6.902;2023-03-25T02:50:24;99590.50;;;9.16;100.00
4836;BME280;66719;51.226;6.902;2023-03-25T02:52:56;99588.78;;;9.15;100.00
4836;BME280;66719;51.226;6.902;2023-03-25T02:55:26;99591.44;;;9.14;100.00
4836;BME280;66719;51.226;6.902;2023-03-25T02:57:56;99584.59;;;9.10;100.00
4836;BME280;66719;51.226;6.902;2023-03-25T03:00:27;99597.66;;;9.10;100.00
4836;BME280;66719;51.226;6.902;2023-03-25T03:03:00;99584.66;;;9.08;100.00
4836;BME280;66719;51.226;6.902;2023-03-25T03:05:32;99585.50;;;9.09;100.00
4836;BME280;66719;51.226;6.902;2023-03-25T03:14:05;99564.72;;;9.05;100.00
4836;BME280;66719;51.226;6.902;2023-03-25T03:16:50;99571.66;;;9.06;100.00
4836;BME280;66719;51.226;6.902;2023-03-25T03:24:46;99570.00;;;9.04;100.00
4836;BME280;66719;51.226;6.902;2023-03-25T03:27:18;99572.56;;;9.05;100.00
4836;BME280;66719;51.226;6.902;2023-03-25T03:30:19;99569.09;;;9.05;100.00
4836;BME280;66719;51.226;6.902;2023-03-25T03:35:32;99575.22;;;9.04;100.00
4836;BME280;66719;51.226;6.902;2023-03-25T03:38:02;99579.59;;;9.03;100.00
4836;BME280;66719;51.226;6.902;2023-03-25T03:40:35;99572.63;;;9.02;100.00
4836;BME280;66719;51.226;6.902;2023-03-25T03:43:06;99558.69;;;9.03;100.00
4836;BME280;66719;51.226;6.902;2023-03-25T03:45:43;99568.19;;;9.06;100.00
4836;BME280;66719;51.226;6.902;2023-03-25T03:48:16;99570.75;;;9.07;100.00
4836;BME280;66719;51.226;6.902;2023-03-25T03:50:51;99580.28;;;9.09;100.00
4836;BME280;66719;51.226;6.902;2023-03-25T03:53:35;99580.34;;;9.07;100.00
4836;BME280;66719;51.226;6.902;2023-03-25T03:56:10;99585.63;;;9.05;100.00
4836;BME280;66719;51.226;6.902;2023-03-25T03:58:41;99589.13;;;9.04;100.00
4836;BME280;66719;51.226;6.902;2023-03-25T04:01:32;99586.53;;;9.03;100.00
4836;BME280;66719;51.226;6.902;2023-03-25T04:04:02;99586.66;;;9.00;100.00
4836;BME280;66719;51.226;6.902;2023-03-25T04:09:22;99589.41;;;8.95;100.00
4836;BME280;66719;51.226;6.902;2023-03-25T04:12:15;99586.88;;;8.92;100.00
4836;BME280;66719;51.226;6.902;2023-03-25T04:14:43;99582.59;;;8.90;100.00
4836;BME280;66719;51.226;6.902;2023-03-25T04:17:10;99582.59;;;8.90;100.00
4836;BME280;66719;51.226;6.902;2023-03-25T04:19:37;99572.13;;;8.91;100.00
4836;BME280;66719;51.226;6.902;2023-03-25T04:22:05;99566.00;;;8.92;100.00
4836;BME280;66719;51.226;6.902;2023-03-25T04:24:32;99573.81;;;8.92;100.00
4836;BME280;66719;51.226;6.902;2023-03-25T04:26:59;99579.03;;;8.92;100.00
4836;BME280;66719;51.226;6.902;2023-03-25T04:29:30;99572.91;;;8.95;100.00
4836;BME280;66719;51.226;6.902;2023-03-25T04:32:00;99588.56;;;8.95;100.00
4836;BME280;66719;51.226;6.902;2023-03-25T04:34:27;99592.03;;;8.95;100.00
4836;BME280;66719;51.226;6.902;2023-03-25T04:36:54;99580.56;;;8.99;100.00
4836;BME280;66719;51.226;6.902;2023-03-25T04:39:23;99574.44;;;9.00;100.00
4836;BME280;66719;51.226;6.902;2023-03-25T04:41:51;99579.72;;;8.99;100.00
4836;BME280;66719;51.226;6.902;2023-03-25T04:44:29;99578.00;;;8.98;100.00
4836;BME280;66719;51.226;6.902;2023-03-25T04:47:00;99584.94;;;8.99;100.00
4836;BME280;66719;51.226;6.902;2023-03-25T04:49:27;99589.25;;;9.00;100.00
4836;BME280;66719;51.226;6.902;2023-03-25T04:51:53;99584.03;;;9.00;100.00
4836;BME280;66719;51.226;6.902;2023-03-25T04:54:21;99583.19;;;8.99;100.00
4836;BME280;66719;51.226;6.902;2023-03-25T04:56:50;99577.97;;;8.99;100.00
4836;BME280;66719;51.226;6.902;2023-03-25T04:59:18;99579.63;;;9.02;100.00
4836;BME280;66719;51.226;6.902;2023-03-25T05:01:45;99575.22;;;9.04;100.00
4836;BME280;66719;51.226;6.902;2023-03-25T05:04:14;99582.09;;;9.06;100.00
4836;BME280;66719;51.226;6.902;2023-03-25T05:06:47;99578.69;;;9.04;100.00
4836;BME280;66719;51.226;6.902;2023-03-25T05:09:18;99575.13;;;9.07;100.00
4836;BME280;66719;51.226;6.902;2023-03-25T05:11:45;99573.69;;;8.97;100.00
4836;BME280;66719;51.226;6.902;2023-03-25T05:14:14;99577.28;;;8.93;100.00
4836;BME280;66719;51.226;6.902;2023-03-25T05:16:42;99573.16;;;8.86;100.00
4836;BME280;66719;51.226;6.902;2023-03-25T05:19:09;99576.75;;;8.82;100.00
4836;BME280;66719;51.226;6.902;2023-03-25T05:21:37;99584.88;;;8.72;100.00
4836;BME280;66719;51.226;6.902;2023-03-25T05:24:05;99579.81;;;8.66;100.00
4836;BME280;66719;51.226;6.902;2023-03-25T05:26:40;99578.97;;;8.66;100.00
4836;BME280;66719;51.226;6.902;2023-03-25T05:29:12;99587.75;;;8.63;100.00
4836;BME280;66719;51.226;6.902;2023-03-25T05:31:41;99592.97;;;8.63;100.00
4836;BME280;66719;51.226;6.902;2023-03-25T05:34:10;99594.78;;;8.61;100.00
4836;BME280;66719;51.226;6.902;2023-03-25T05:36:36;99594.00;;;8.58;100.00
4836;BME280;66719;51.226;6.902;2023-03-25T05:39:03;99582.81;;;8.54;100.00
4836;BME280;66719;51.226;6.902;2023-03-25T05:41:31;99582.81;;;8.54;100.00
4836;BME280;66719;51.226;6.902;2023-03-25T05:43:59;99593.19;;;8.56;100.00
4836;BME280;66719;51.226;6.902;2023-03-25T05:46:27;99593.13;;;8.57;100.00
4836;BME280;66719;51.226;6.902;2023-03-25T05:48:55;99591.34;;;8.59;100.00
4836;BME280;66719;51.226;6.902;2023-03-25T05:51:27;99588.72;;;8.59;100.00
4836;BME280;66719;51.226;6.902;2023-03-25T05:53:54;99580.81;;;8.62;100.00
4836;BME280;66719;51.226;6.902;2023-03-25T05:56:21;99582.53;;;8.63;100.00
4836;BME280;66719;51.226;6.902;2023-03-25T05:58:50;99579.81;;;8.66;100.00
4836;BME280;66719;51.226;6.902;2023-03-25T06:01:19;99597.22;;;8.66;100.00
4836;BME280;66719;51.226;6.902;2023-03-25T06:03:59;99588.44;;;8.68;100.00
4836;BME280;66719;51.226;6.902;2023-03-25T06:06:30;99585.81;;;8.70;100.00
4836;BME280;66719;51.226;6.902;2023-03-25T06:08:57;99594.41;;;8.73;100.00
4836;BME280;66719;51.226;6.902;2023-03-25T06:11:24;99585.72;;;8.73;100.00
4836;BME280;66719;51.226;6.902;2023-03-25T06:13:51;99596.97;;;8.75;100.00
4836;BME280;66719;51.226;6.902;2023-03-25T06:16:22;99594.28;;;8.78;100.00
4836;BME280;66719;51.226;6.902;2023-03-25T06:18:53;99602.06;;;8.80;100.00
4836;BME280;66719;51.226;6.902;2023-03-25T06:21:30;99610.75;;;8.80;100.00
4836;BME280;66719;51.226;6.902;2023-03-25T06:23:58;99602.13;;;8.78;100.00
4836;BME280;66719;51.226;6.902;2023-03-25T06:26:26;99589.09;;;8.76;100.00
4836;BME280;66719;51.226;6.902;2023-03-25T06:28:53;99599.63;;;8.73;100.00
4836;BME280;66719;51.226;6.902;2023-03-25T06:31:24;99609.22;;;8.73;100.00
4836;BME280;66719;51.226;6.902;2023-03-25T06:33:59;99593.66;;;8.68;100.00
4836;BME280;66719;51.226;6.902;2023-03-25T06:36:26;99588.69;;;8.61;100.00
4836;BME280;66719;51.226;6.902;2023-03-25T06:38:53;99593.19;;;8.56;100.00
4836;BME280;66719;51.226;6.902;2023-03-25T06:41:20;99595.91;;;8.51;100.00
4836;BME280;66719;51.226;6.902;2023-03-25T06:43:47;99590.91;;;8.45;100.00
4836;BME280;66719;51.226;6.902;2023-03-25T06:46:14;99606.66;;;8.40;100.00
4836;BME280;66719;51.226;6.902;2023-03-25T06:48:41;99605.91;;;8.37;100.00
4836;BME280;66719;51.226;6.902;2023-03-25T06:51:07;99625.06;;;8.36;100.00
4836;BME280;66719;51.226;6.902;2023-03-25T06:53:34;99605.94;;;8.34;100.00
4836;BME280;66719;51.226;6.902;2023-03-25T06:56:00;99606.84;;;8.33;100.00
4836;BME280;66719;51.226;6.902;2023-03-25T06:58:27;99606.84;;;8.33;100.00
4836;BME280;66719;51.226;6.902;2023-03-25T07:01:00;99610.31;;;8.35;100.00
4836;BME280;66719;51.226;6.902;2023-03-25T07:03:32;99613.81;;;8.32;100.00
4836;BME280;66719;51.226;6.902;2023-03-25T07:05:58;99603.38;;;8.32;100.00
4836;BME280;66719;51.226;6.902;2023-03-25T07:08:25;99612.03;;;8.34;100.00
4836;BME280;66719;51.226;6.902;2023-03-25T07:10:51;99599.78;;;8.38;100.00
4836;BME280;66719;51.226;6.902;2023-03-25T07:13:18;99606.75;;;8.37;100.00
4836;BME280;66719;51.226;6.902;2023-03-25T07:15:44;99598.88;;;8.39;100.00
4836;BME280;66719;51.226;6.902;2023-03-25T07:18:11;99600.53;;;8.43;100.00
4836;BME280;66719;51.226;6.902;2023-03-25T07:20:38;99591.59;;;8.50;100.00
4836;BME280;66719;51.226;6.902;2023-03-25T07:23:11;99603.66;;;8.54;100.00
4836;BME280;66719;51.226;6.902;2023-03-25T07:25:37;99610.50;;;8.58;100.00
4836;BME280;66719;51.226;6.902;2023-03-25T07:28:04;99605.22;;;8.61;100.00
4836;BME280;66719;51.226;6.902;2023-03-25T07:30:31;99619.88;;;8.65;100.00
4836;BME280;66719;51.226;6.902;2023-03-25T07:32:57;99623.22;;;8.70;100.00
4836;BME280;66719;51.226;6.902;2023-03-25T07:35:24;99620.50;;;8.73;100.00
4836;BME280;66719;51.226;6.902;2023-03-25T07:37:51;99628.22;;;8.78;100.00
4836;BME280;66719;51.226;6.902;2023-03-25T07:40:17;99624.59;;;8.82;100.00
4836;BME280;66719;51.226;6.902;2023-03-25T07:42:44;99629.72;;;8.85;100.00
4836;BME280;66719;51.226;6.902;2023-03-25T07:45:10;99631.44;;;8.86;100.00
4836;BME280;66719;51.226;6.902;2023-03-25T07:47:37;99622.72;;;8.87;100.00
4836;BME280;66719;51.226;6.902;2023-03-25T07:50:04;99638.31;;;8.89;100.00
4836;BME280;66719;51.226;6.902;2023-03-25T07:52:31;99634.81;;;8.90;100.00
4836;BME280;66719;51.226;6.902;2023-03-25T07:54:57;99642.59;;;8.91;100.00
4836;BME280;66719;51.226;6.902;2023-03-25T07:57:25;99639.88;;;8.94;100.00
4836;BME280;66719;51.226;6.902;2023-03-25T07:59:52;99642.47;;;8.96;100.00
4836;BME280;66719;51.226;6.902;2023-03-25T08:02:18;99627.72;;;8.95;100.00
4836;BME280;66719;51.226;6.902;2023-03-25T08:04:45;99638.97;;;8.97;100.00
4836;BME280;66719;51.226;6.902;2023-03-25T08:07:11;99645.09;;;8.96;100.00
4836;BME280;66719;51.226;6.902;2023-03-25T08:09:40;99638.19;;;8.93;100.00
4836;BME280;66719;51.226;6.902;2023-03-25T08:12:07;99650.31;;;8.94;100.00
4836;BME280;66719;51.226;6.902;2023-03-25T08:14:34;99659.06;;;8.93;100.00
4836;BME280;66719;51.226;6.902;2023-03-25T08:17:01;99658.09;;;8.97;100.00
4836;BME280;66719;51.226;6.902;2023-03-25T08:19:27;99675.34;;;9.01;100.00
4836;BME280;66719;51.226;6.902;2023-03-25T08:21:54;99664.78;;;9.06;100.00
4836;BME280;66719;51.226;6.902;2023-03-25T08:24:20;99675.94;;;9.11;100.00
4836;BME280;66719;51.226;6.902;2023-03-25T08:26:47;99676.78;;;9.13;100.00
4836;BME280;66719;51.226;6.902;2023-03-25T08:29:14;99671.34;;;9.19;100.00
4836;BME280;66719;51.226;6.902;2023-03-25T08:31:42;99667.69;;;9.25;100.00
4836;BME280;66719;51.226;6.902;2023-03-25T08:34:12;99675.53;;;9.25;100.00
4836;BME280;66719;51.226;6.902;2023-03-25T08:36:39;99672.00;;;9.26;100.00
4836;BME280;66719;51.226;6.902;2023-03-25T08:39:06;99657.25;;;9.25;100.00
4836;BME280;66719;51.226;6.902;2023-03-25T08:41:38;99663.28;;;9.27;100.00
4836;BME280;66719;51.226;6.902;2023-03-25T08:44:05;99667.53;;;9.29;100.00
4836;BME280;66719;51.226;6.902;2023-03-25T08:46:32;99660.47;;;9.33;100.00
4836;BME280;66719;51.226;6.902;2023-03-25T08:48:59;99667.38;;;9.35;100.00
4836;BME280;66719;51.226;6.902;2023-03-25T08:51:26;99661.28;;;9.35;100.00
4836;BME280;66719;51.226;6.902;2023-03-25T08:53:52;99657.81;;;9.34;100.00
4836;BME280;66719;51.226;6.902;2023-03-25T08:56:19;99662.06;;;9.39;100.00
4836;BME280;66719;51.226;6.902;2023-03-25T08:58:46;99676.66;;;9.44;100.00
4836;BME280;66719;51.226;6.902;2023-03-25T09:01:12;99666.91;;;9.51;100.00
4836;BME280;66719;51.226;6.902;2023-03-25T09:03:39;99662.34;;;9.57;100.00
4836;BME280;66719;51.226;6.902;2023-03-25T09:06:07;99667.41;;;9.62;100.00
4836;BME280;66719;51.226;6.902;2023-03-25T09:08:35;99662.03;;;9.67;100.00
4836;BME280;66719;51.226;6.902;2023-03-25T09:11:05;99668.81;;;9.72;100.00
4836;BME280;66719;51.226;6.902;2023-03-25T09:13:31;99663.56;;;9.74;100.00
4836;BME280;66719;51.226;6.902;2023-03-25T09:15:58;99666.25;;;9.71;100.00
4836;BME280;66719;51.226;6.902;2023-03-25T09:18:24;99669.63;;;9.74;100.00
4836;BME280;66719;51.226;6.902;2023-03-25T09:20:51;99671.41;;;9.72;100.00
4836;BME280;66719;51.226;6.902;2023-03-25T09:23:17;99681.97;;;9.69;100.00
4836;BME280;66719;51.226;6.902;2023-03-25T09:25:44;99668.00;;;9.70;100.00
4836;BME280;66719;51.226;6.902;2023-03-25T09:28:12;99668.81;;;9.72;100.00
4836;BME280;66719;51.226;6.902;2023-03-25T09:30:38;99665.22;;;9.76;100.00
4836;BME280;66719;51.226;6.902;2023-03-25T09:33:05;99666.81;;;9.80;100.00
4836;BME280;66719;51.226;6.902;2023-03-25T09:35:32;99659.78;;;9.82;100.00
4836;BME280;66719;51.226;6.902;2023-03-25T09:37:59;99662.34;;;9.84;100.00
4836;BME280;66719;51.226;6.902;2023-03-25T09:40:25;99671.03;;;9.84;100.00
4836;BME280;66719;51.226;6.902;2023-03-25T09:45:46;99668.38;;;9.86;100.00
4836;BME280;66719;51.226;6.902;2023-03-25T09:48:37;99670.03;;;9.88;100.00
4836;BME280;66719;51.226;6.902;2023-03-25T09:51:12;99683.94;;;9.90;100.00
4836;BME280;66719;51.226;6.902;2023-03-25T09:53:46;99678.63;;;9.92;100.00
4836;BME280;66719;51.226;6.902;2023-03-25T09:56:20;99679.50;;;9.93;100.00
4836;BME280;66719;51.226;6.902;2023-03-25T09:58:55;99679.38;;;9.96;100.00
4836;BME280;66719;51.226;6.902;2023-03-25T10:09:53;99686.91;;;10.05;100.00
4836;BME280;66719;51.226;6.902;2023-03-25T10:12:36;99693.78;;;10.09;100.00
4836;BME280;66719;51.226;6.902;2023-03-25T10:15:16;99686.72;;;10.11;100.00
4836;BME280;66719;51.226;6.902;2023-03-25T10:23:48;99684.69;;;10.19;100.00
4836;BME280;66719;51.226;6.902;2023-03-25T10:29:09;99691.03;;;10.38;100.00
4836;BME280;66719;51.226;6.902;2023-03-25T10:31:42;99682.00;;;10.47;100.00
4836;BME280;66719;51.226;6.902;2023-03-25T10:34:16;99693.81;;;10.59;100.00
4836;BME280;66719;51.226;6.902;2023-03-25T10:36:51;99687.91;;;10.54;100.00
4836;BME280;66719;51.226;6.902;2023-03-25T10:39:21;99692.28;;;10.53;100.00
4836;BME280;66719;51.226;6.902;2023-03-25T10:41:58;99693.22;;;10.51;100.00
4836;BME280;66719;51.226;6.902;2023-03-25T10:44:26;99689.22;;;10.40;100.00
4836;BME280;66719;51.226;6.902;2023-03-25T10:46:57;99689.47;;;10.33;100.00
4836;BME280;66719;51.226;6.902;2023-03-25T10:49:27;99699.00;;;10.35;100.00
4836;BME280;66719;51.226;6.902;2023-03-25T10:51:55;99691.84;;;10.40;100.00
4836;BME280;66719;51.226;6.902;2023-03-25T10:54:30;99695.31;;;10.41;100.00
4836;BME280;66719;51.226;6.902;2023-03-25T10:57:00;99688.28;;;10.43;100.00
4836;BME280;66719;51.226;6.902;2023-03-25T10:59:40;99685.09;;;10.58;100.00
4836;BME280;66719;51.226;6.902;2023-03-25T11:02:18;99706.81;;;10.62;100.00
4836;BME280;66719;51.226;6.902;2023-03-25T11:04:47;99693.00;;;10.57;100.00
4836;BME280;66719;51.226;6.902;2023-03-25T11:07:18;99694.97;;;10.52;100.00
4836;BME280;66719;51.226;6.902;2023-03-25T11:09:46;99684.38;;;10.55;100.00
4836;BME280;66719;51.226;6.902;2023-03-25T11:12:17;99680.63;;;10.62;100.00
4836;BME280;66719;51.226;6.902;2023-03-25T11:14:53;99683.19;;;10.63;100.00
4836;BME280;66719;51.226;6.902;2023-03-25T11:17:21;99689.06;;;10.70;100.00
4836;BME280;66719;51.226;6.902;2023-03-25T11:22:21;99671.47;;;10.73;100.00
4836;BME280;66719;51.226;6.902;2023-03-25T11:24:50;99680.34;;;10.69;100.00
4836;BME280;66719;51.226;6.902;2023-03-25T11:27:25;99678.75;;;10.65;100.00
4836;BME280;66719;51.226;6.902;2023-03-25T11:30:14;99675.13;;;10.69;100.00
4836;BME280;66719;51.226;6.902;2023-03-25T11:32:41;99681.31;;;10.67;100.00
4836;BME280;66719;51.226;6.902;2023-03-25T11:35:16;99675.41;;;10.62;100.00
4836;BME280;66719;51.226;6.902;2023-03-25T11:37:46;99690.34;;;10.58;100.00
4836;BME280;66719;51.226;6.902;2023-03-25T11:40:17;99685.34;;;10.52;100.00
4836;BME280;66719;51.226;6.902;2023-03-25T11:42:45;99687.09;;;10.52;100.00
4836;BME280;66719;51.226;6.902;2023-03-25T11:47:49;99693.47;;;10.68;100.00
4836;BME280;66719;51.226;6.902;2023-03-25T11:50:23;99703.41;;;10.83;100.00
4836;BME280;66719;51.226;6.902;2023-03-25T11:53:01;99696.13;;;10.91;100.00
4836;BME280;66719;51.226;6.902;2023-03-25T11:55:30;99700.56;;;10.89;100.00
4836;BME280;66719;51.226;6.902;2023-03-25T11:57:59;99695.59;;;10.82;100.00
4836;BME280;66719;51.226;6.902;2023-03-25T12:00:38;99724.88;;;10.68;100.00
4836;BME280;66719;51.226;6.902;2023-03-25T12:05:39;99714.97;;;10.53;100.00
4836;BME280;66719;51.226;6.902;2023-03-25T12:08:17;99729.97;;;10.47;100.00
4836;BME280;66719;51.226;6.902;2023-03-25T12:10:52;99733.34;;;10.26;100.00
4836;BME280;66719;51.226;6.902;2023-03-25T12:22:05;99760.38;;;9.97;100.00
4836;BME280;66719;51.226;6.902;2023-03-25T12:36:11;99704.44;;;10.29;100.00
4836;BME280;66719;51.226;6.902;2023-03-25T12:38:56;99691.34;;;10.79;100.00
4836;BME280;66719;51.226;6.902;2023-03-25T12:47:26;99706.25;;;11.24;100.00
4836;BME280;66719;51.226;6.902;2023-03-25T12:52:46;99682.84;;;12.08;100.00
4836;BME280;66719;51.226;6.902;2023-03-25T12:55:30;99684.38;;;11.92;100.00
4836;BME280;66719;51.226;6.902;2023-03-25T12:58:25;99690.38;;;11.50;100.00
4836;BME280;66719;51.226;6.902;2023-03-25T13:04:13;99691.31;;;11.04;100.00
4836;BME280;66719;51.226;6.902;2023-03-25T13:09:26;99719.06;;;10.60;100.00
4836;BME280;66719;51.226;6.902;2023-03-25T13:14:38;99727.28;;;9.96;100.00
4836;BME280;66719;51.226;6.902;2023-03-25T13:17:10;99696.41;;;9.81;100.00
4836;BME280;66719;51.226;6.902;2023-03-25T13:19:40;99705.56;;;9.68;100.00
4836;BME280;66719;51.226;6.902;2023-03-25T13:22:23;99731.69;;;9.68;100.00
4836;BME280;66719;51.226;6.902;2023-03-25T13:24:56;99726.41;;;9.69;100.00
4836;BME280;66719;51.226;6.902;2023-03-25T13:27:24;99727.66;;;9.57;100.00
4836;BME280;66719;51.226;6.902;2023-03-25T13:29:58;99738.69;;;9.39;100.00
4836;BME280;66719;51.226;6.902;2023-03-25T13:32:33;99756.56;;;9.23;100.00
4836;BME280;66719;51.226;6.902;2023-03-25T13:35:12;99756.53;;;8.92;100.00
4836;BME280;66719;51.226;6.902;2023-03-25T13:37:45;99741.13;;;8.83;100.00
4836;BME280;66719;51.226;6.902;2023-03-25T13:40:32;99751.78;;;8.75;100.00
4836;BME280;66719;51.226;6.902;2023-03-25T13:43:26;99733.59;;;8.72;100.00
4836;BME280;66719;51.226;6.902;2023-03-25T13:46:05;99713.22;;;8.87;100.00
4836;BME280;66719;51.226;6.902;2023-03-25T13:49:19;99713.75;;;8.98;100.00
4836;BME280;66719;51.226;6.902;2023-03-25T13:51:26;99723.03;;;9.08;100.00
4836;BME280;66719;51.226;6.902;2023-03-25T14:00:15;99692.94;;;9.80;100.00
4836;BME280;66719;51.226;6.902;2023-03-25T14:13:45;99720.13;;;10.29;100.00
4836;BME280;66719;51.226;6.902;2023-03-25T14:16:24;99726.69;;;10.14;100.00
4836;BME280;66719;51.226;6.902;2023-03-25T14:18:58;99704.47;;;10.01;100.00
4836;BME280;66719;51.226;6.902;2023-03-25T14:21:30;99715.75;;;10.03;100.00
4836;BME280;66719;51.226;6.902;2023-03-25T14:24:06;99713.97;;;10.04;100.00
4836;BME280;66719;51.226;6.902;2023-03-25T14:26:35;99726.38;;;9.97;100.00
4836;BME280;66719;51.226;6.902;2023-03-25T14:29:14;99716.16;;;9.91;100.00
4836;BME280;66719;51.226;6.902;2023-03-25T14:34:49;99722.91;;;9.97;100.00
4836;BME280;66719;51.226;6.902;2023-03-25T14:39:43;99705.44;;;10.52;100.00
4836;BME280;66719;51.226;6.902;2023-03-25T14:42:55;99708.19;;;10.47;100.00
4836;BME280;66719;51.226;6.902;2023-03-25T14:48:04;99716.94;;;10.46;100.00
4836;BME280;66719;51.226;6.902;2023-03-25T14:51:20;99711.97;;;10.38;100.00
4836;BME280;66719;51.226;6.902;2023-03-25T14:53:54;99697.50;;;10.28;100.00
4836;BME280;66719;51.226;6.902;2023-03-25T14:56:32;99702.31;;;10.14;100.00
4836;BME280;66719;51.226;6.902;2023-03-25T14:59:07;99706.31;;;9.98;100.00
4836;BME280;66719;51.226;6.902;2023-03-25T15:01:36;99698.78;;;9.88;100.00
4836;BME280;66719;51.226;6.902;2023-03-25T15:06:45;99696.53;;;9.78;100.00
4836;BME280;66719;51.226;6.902;2023-03-25T15:09:15;99716.63;;;9.76;100.00
4836;BME280;66719;51.226;6.902;2023-03-25T15:11:51;99716.72;;;9.73;100.00
4836;BME280;66719;51.226;6.902;2023-03-25T15:14:23;99703.63;;;9.73;100.00
4836;BME280;66719;51.226;6.902;2023-03-25T15:16:57;99718.47;;;9.72;100.00
4836;BME280;66719;51.226;6.902;2023-03-25T15:19:24;99711.53;;;9.71;100.00
4836;BME280;66719;51.226;6.902;2023-03-25T15:24:25;99760.09;;;9.50;100.00
4836;BME280;66719;51.226;6.902;2023-03-25T15:26:54;99742.13;;;9.40;100.00
4836;BME280;66719;51.226;6.902;2023-03-25T15:29:51;99738.03;;;9.31;100.00
4836;BME280;66719;51.226;6.902;2023-03-25T15:32:39;99732.94;;;9.26;100.00
4836;BME280;66719;51.226;6.902;2023-03-25T15:35:39;99727.19;;;9.15;100.00
4836;BME280;66719;51.226;6.902;2023-03-25T15:41:12;99731.94;;;9.01;100.00